地図

経路データ

SID SEASON NUMBER BASIN SUBBASIN NAME ISO_TIME NATURE LAT LON WMO_WIND WMO_PRES WMO_AGENCY TRACK_TYPE DIST2LAND LANDFALL IFLAG USA_AGENCY USA_ATCF_ID USA_LAT USA_LON USA_RECORD USA_STATUS USA_WIND USA_PRES USA_SSHS USA_R34_NE USA_R34_SE USA_R34_SW USA_R34_NW USA_R50_NE USA_R50_SE USA_R50_SW USA_R50_NW USA_R64_NE USA_R64_SE USA_R64_SW USA_R64_NW USA_POCI USA_ROCI USA_RMW USA_EYE TOKYO_LAT TOKYO_LON TOKYO_GRADE TOKYO_WIND TOKYO_PRES TOKYO_R50_DIR TOKYO_R50_LONG TOKYO_R50_SHORT TOKYO_R30_DIR TOKYO_R30_LONG TOKYO_R30_SHORT TOKYO_LAND CMA_LAT CMA_LON CMA_CAT CMA_WIND CMA_PRES HKO_LAT HKO_LON HKO_CAT HKO_WIND HKO_PRES NEWDELHI_LAT NEWDELHI_LON NEWDELHI_GRADE NEWDELHI_WIND NEWDELHI_PRES NEWDELHI_CI NEWDELHI_DP NEWDELHI_POCI REUNION_LAT REUNION_LON REUNION_TYPE REUNION_WIND REUNION_PRES REUNION_TNUM REUNION_CI REUNION_RMW REUNION_R34_NE REUNION_R34_SE REUNION_R34_SW REUNION_R34_NW REUNION_R50_NE REUNION_R50_SE REUNION_R50_SW REUNION_R50_NW REUNION_R64_NE REUNION_R64_SE REUNION_R64_SW REUNION_R64_NW BOM_LAT BOM_LON BOM_TYPE BOM_WIND BOM_PRES BOM_TNUM BOM_CI BOM_RMW BOM_R34_NE BOM_R34_SE BOM_R34_SW BOM_R34_NW BOM_R50_NE BOM_R50_SE BOM_R50_SW BOM_R50_NW BOM_R64_NE BOM_R64_SE BOM_R64_SW BOM_R64_NW BOM_ROCI BOM_POCI BOM_EYE BOM_POS_METHOD BOM_PRES_METHOD NADI_LAT NADI_LON NADI_CAT NADI_WIND NADI_PRES WELLINGTON_LAT WELLINGTON_LON WELLINGTON_WIND WELLINGTON_PRES DS824_LAT DS824_LON DS824_STAGE DS824_WIND DS824_PRES TD9636_LAT TD9636_LON TD9636_STAGE TD9636_WIND TD9636_PRES TD9635_LAT TD9635_LON TD9635_WIND TD9635_PRES TD9635_ROCI NEUMANN_LAT NEUMANN_LON NEUMANN_CLASS NEUMANN_WIND NEUMANN_PRES MLC_LAT MLC_LON MLC_CLASS MLC_WIND MLC_PRES USA_GUST BOM_GUST BOM_GUST_PER REUNION_GUST REUNION_GUST_PER USA_SEAHGT USA_SEARAD_NE USA_SEARAD_SE USA_SEARAD_SW USA_SEARAD_NW STORM_SPEED STORM_DIR
1993273N11245 1993 75 EP MM MAX 1993-09-30 00:00:00 TS 10.5000 -114.600 30 1008 hurdat_epa main 1433 1433 O_____________ hurdat_epa EP151993 10.5000 -114.600 TD 30 1008 -1 3 320
1993273N11245 1993 75 EP MM MAX 1993-09-30 03:00:00 TS 10.6325 -114.712 main 1433 1424 P_____________ EP151993 10.6325 -114.712 TD 30 1007 -1 4 327
1993273N11245 1993 75 EP MM MAX 1993-09-30 06:00:00 TS 10.8000 -114.800 30 1007 hurdat_epa main 1424 1408 O_____________ hurdat_epa EP151993 10.8000 -114.800 TD 30 1007 -1 4 341
1993273N11245 1993 75 EP MM MAX 1993-09-30 09:00:00 TS 11.0150 -114.850 main 1416 1400 P_____________ EP151993 11.0150 -114.850 TD 32 1005 -1 4 347
1993273N11245 1993 75 EP MM MAX 1993-09-30 12:00:00 TS 11.2000 -114.900 35 1004 hurdat_epa main 1400 1392 O_____________ hurdat_epa EP151993 11.2000 -114.900 TS 35 1004 0 3 333
1993273N11245 1993 75 EP MM MAX 1993-09-30 15:00:00 TS 11.2725 -114.985 main 1400 1400 P_____________ EP151993 11.2725 -114.985 TS 35 1004 0 2 297
1993273N11245 1993 75 EP MM MAX 1993-09-30 18:00:00 TS 11.3000 -115.100 35 1004 hurdat_epa main 1406 1399 O_____________ hurdat_epa EP151993 11.3000 -115.100 TS 35 1004 0 3 288
1993273N11245 1993 75 EP MM MAX 1993-09-30 21:00:00 TS 11.3575 -115.242 main 1399 1399 P_____________ EP151993 11.3575 -115.242 TS 32 1006 -1 3 289
1993273N11245 1993 75 EP MM MAX 1993-10-01 00:00:00 TS 11.4000 -115.400 30 1008 hurdat_epa main 1408 1408 O_____________ hurdat_epa EP151993 11.4000 -115.400 TD 30 1008 -1 3 279
1993273N11245 1993 75 EP MM MAX 1993-10-01 03:00:00 TS 11.4075 -115.550 main 1417 1417 P_____________ EP151993 11.4075 -115.550 TD 30 1008 -1 3 270
1993273N11245 1993 75 EP MM MAX 1993-10-01 06:00:00 TS 11.4000 -115.700 30 1009 hurdat_epa main 1421 1421 O_____________ hurdat_epa EP151993 11.4000 -115.700 TD 30 1009 -1 3 270
1993273N11245 1993 75 EP MM MAX 1993-10-01 09:00:00 TS 11.4075 -115.842 main 1426 1426 P_____________ EP151993 11.4075 -115.842 TD 30 1008 -1 3 270
1993273N11245 1993 75 EP MM MAX 1993-10-01 12:00:00 TS 11.4000 -116.000 30 1008 hurdat_epa main 1435 1435 O_____________ hurdat_epa EP151993 11.4000 -116.000 TD 30 1008 -1 4 264
1993273N11245 1993 75 EP MM MAX 1993-10-01 15:00:00 TS 11.3725 -116.200 main 1445 1445 P_____________ EP151993 11.3725 -116.200 TD 32 1006 -1 4 256
1993273N11245 1993 75 EP MM MAX 1993-10-01 18:00:00 TS 11.3000 -116.400 35 1004 hurdat_epa main 1464 1464 O_____________ hurdat_epa EP151993 11.3000 -116.400 TS 35 1004 0 4 240
1993273N11245 1993 75 EP MM MAX 1993-10-01 21:00:00 TS 11.1650 -116.558 main 1484 1484 P_____________ EP151993 11.1650 -116.558 TS 37 1002 0 4 224
1993273N11245 1993 75 EP MM MAX 1993-10-02 00:00:00 TS 11.0000 -116.700 40 1000 hurdat_epa main 1509 1509 O_____________ hurdat_epa EP151993 11.0000 -116.700 TS 40 1000 0 4 224
1993273N11245 1993 75 EP MM MAX 1993-10-02 03:00:00 TS 10.8425 -116.873 main 1539 1539 P_____________ EP151993 10.8425 -116.873 TS 40 1000 0 4 224
1993273N11245 1993 75 EP MM MAX 1993-10-02 06:00:00 TS 10.7000 -117.000 40 1001 hurdat_epa main 1554 1554 O_____________ hurdat_epa EP151993 10.7000 -117.000 TS 40 1001 0 3 208
1993273N11245 1993 75 EP MM MAX 1993-10-02 09:00:00 TS 10.5700 -117.022 main 1564 1564 P_____________ EP151993 10.5700 -117.022 TS 37 1001 0 2 172
1993273N11245 1993 75 EP MM MAX 1993-10-02 12:00:00 TS 10.5000 -117.000 35 1002 hurdat_epa main 1574 1564 O_____________ hurdat_epa EP151993 10.5000 -117.000 TS 35 1002 0 0 0
1993273N11245 1993 75 EP MM MAX 1993-10-02 15:00:00 TS 10.5650 -117.008 main 1564 1564 P_____________ EP151993 10.5650 -117.008 TS 35 1002 0 1 0
1993273N11245 1993 75 EP MM MAX 1993-10-02 18:00:00 TS 10.6000 -117.000 35 1003 hurdat_epa main 1564 1564 O_____________ hurdat_epa EP151993 10.6000 -117.000 TS 35 1003 0 2 166
1993273N11245 1993 75 EP MM MAX 1993-10-02 21:00:00 TS 10.3850 -116.972 main 1584 1584 P_____________ EP151993 10.3850 -116.972 TS 35 1003 0 4 167
1993273N11245 1993 75 EP MM MAX 1993-10-03 00:00:00 TS 10.2000 -116.900 35 1004 hurdat_epa main 1599 1589 O_____________ hurdat_epa EP151993 10.2000 -116.900 TS 35 1004 0 3 121
1993273N11245 1993 75 EP MM MAX 1993-10-03 03:00:00 TS 10.2300 -116.713 main 1589 1554 P_____________ EP151993 10.2300 -116.713 TS 35 1004 0 4 44
1993273N11245 1993 75 EP MM MAX 1993-10-03 06:00:00 TS 10.5000 -116.600 35 1004 hurdat_epa main 1554 1514 O_____________ hurdat_epa EP151993 10.5000 -116.600 TS 35 1004 0 8 354
1993273N11245 1993 75 EP MM MAX 1993-10-03 09:00:00 TS 11.0626 -116.792 main 1504 1456 P_____________ EP151993 11.0626 -116.792 TS 32 1004 -1 13 342
1993273N11245 1993 75 EP MM MAX 1993-10-03 12:00:00 TS 11.7000 -117.000 30 1005 hurdat_epa main 1456 1412 O_____________ hurdat_epa EP151993 11.7000 -117.000 TD 30 1005 -1 10 352
1993273N11245 1993 75 EP MM MAX 1993-10-03 15:00:00 TS 12.0850 -116.938 main 1412 1367 P_____________ EP151993 12.0850 -116.938 TD 30 1006 -1 8 14
1993273N11245 1993 75 EP MM MAX 1993-10-03 18:00:00 TS 12.5000 -116.800 30 1007 hurdat_epa main 1367 1304 O_____________ hurdat_epa EP151993 12.5000 -116.800 TD 30 1007 -1 11 11
1993273N11245 1993 75 EP MM MAX 1993-10-03 21:00:00 TS 13.1300 -116.725 main 1304 1229 P_____________ EP151993 13.1300 -116.725 TD 27 1007 -1 14 4
1993273N11245 1993 75 EP MM MAX 1993-10-04 00:00:00 TS 13.9000 -116.700 25 1008 hurdat_epa main 1229 O_____________ hurdat_epa EP151993 13.9000 -116.700 TD 25 1008 -1 16 1

IBTrACS Databaseについて

本データベースは、米国NOAAが公開する1842年以降の世界の熱帯低気圧のベストトラックデータアーカイブInternational Best Track Archive for Climate Stewardship (IBTrACS)を、ウェブで閲覧しやすい形式に変換したものです。

最終更新日:2021-10-21